Time;durP1;ratioP1;P1;durP2;ratioP2;P2;SDS_P1;SDS_P2;PMS_P1;PMS_P2;Temp;Humidity;BMP_temperature;BMP_pressure;BME280_temperature;BME280_humidity;BME280_pressure;Samples;Min_cycle;Max_cycle;Signal;HPM_P1;HPM_P2
2021/08/28 00:00:30;;;;;;;8.10;4.07;;;;;;;17.23;75.85;98223.63;5114438;28;20038;-93
2021/08/28 00:02:57;;;;;;;6.72;4.15;;;;;;;17.20;75.98;98223.84;5117199;28;20081;-94
2021/08/28 00:05:23;;;;;;;9.43;4.53;;;;;;;17.13;76.13;98225.19;5115675;28;20045;-94
2021/08/28 00:07:49;;;;;;;7.53;3.97;;;;;;;17.22;76.16;98247.94;5111091;28;20046;-93
2021/08/28 00:10:15;;;;;;;8.10;4.10;;;;;;;16.99;76.73;98230.53;5114551;28;20047;-94
2021/08/28 00:12:41;;;;;;;10.75;4.60;;;;;;;16.94;76.85;98229.97;5116002;28;20043;-94
2021/08/28 00:15:10;;;;;;;12.43;4.43;;;;;;;16.71;77.33;98210.72;5112986;28;20066;-95
2021/08/28 00:17:39;;;;;;;9.00;4.40;;;;;;;16.82;77.16;98229.75;5116089;28;20500;-92
2021/08/28 00:20:11;;;;;;;8.05;4.57;;;;;;;16.84;77.11;98226.97;5117578;28;20400;-96
2021/08/28 00:22:38;;;;;;;8.50;4.47;;;;;;;16.92;77.51;98237.25;5113217;28;20040;-93
2021/08/28 00:25:05;;;;;;;9.55;4.13;;;;;;;16.84;77.62;98226.97;5111609;28;20040;-92
2021/08/28 00:27:33;;;;;;;11.82;4.10;;;;;;;16.89;77.69;98240.97;5116294;28;20480;-94
2021/08/28 00:29:59;;;;;;;9.23;4.80;;;;;;;16.85;77.23;98223.34;5116614;28;20122;-96
2021/08/28 00:32:25;;;;;;;9.35;4.45;;;;;;;16.94;77.36;98229.97;5118792;28;20031;-93
2021/08/28 00:34:51;;;;;;;9.20;4.90;;;;;;;16.92;77.18;98218.47;5116501;28;20044;-92
2021/08/28 00:37:19;;;;;;;8.35;4.38;;;;;;;16.98;77.15;98237.75;5111860;28;20059;-92
2021/08/28 00:39:46;;;;;;;11.30;5.03;;;;;;;17.00;77.74;98257.31;5116771;28;20429;-92
2021/08/28 00:42:11;;;;;;;8.75;4.45;;;;;;;16.89;77.28;98230.22;5116744;28;20039;-93
2021/08/28 00:44:38;;;;;;;8.32;4.30;;;;;;;16.93;77.11;98233.59;5115925;28;20489;-92
2021/08/28 00:47:04;;;;;;;9.02;4.32;;;;;;;16.90;77.61;98231.97;5109570;28;20054;-95
2021/08/28 00:49:30;;;;;;;8.82;4.25;;;;;;;16.94;77.34;98241.56;5115236;28;20123;-94
2021/08/28 00:51:55;;;;;;;9.13;4.63;;;;;;;16.92;76.98;98231.91;5116667;28;20051;-94
2021/08/28 00:54:23;;;;;;;8.40;4.45;;;;;;;16.91;76.68;98240.88;5116785;28;20043;-92
2021/08/28 00:56:49;;;;;;;8.80;4.15;;;;;;;17.02;76.96;98247.34;5116298;28;20032;-93
2021/08/28 00:59:15;;;;;;;11.57;4.65;;;;;;;16.84;77.02;98224.28;5104292;28;20044;-95
2021/08/28 01:01:43;;;;;;;9.85;4.57;;;;;;;16.84;77.02;98235.03;5107757;28;20050;-94
2021/08/28 01:04:14;;;;;;;9.65;3.70;;;;;;;16.92;77.33;98243.50;5116297;28;20071;-94
2021/08/28 01:06:48;;;;;;;9.38;4.25;;;;;;;16.85;77.06;98242.16;5116966;28;20063;-94
2021/08/28 01:09:19;;;;;;;6.90;4.20;;;;;;;16.82;77.11;98232.44;5113142;28;20396;-94
2021/08/28 01:11:51;;;;;;;7.72;3.92;;;;;;;16.86;76.66;98232.25;5115826;28;20531;-93
2021/08/28 01:14:23;;;;;;;6.70;3.83;;;;;;;17.00;76.54;98246.56;5114155;28;20603;-94
2021/08/28 01:16:52;;;;;;;8.07;4.88;;;;;;;16.92;76.12;98242.63;5114819;28;20074;-94
2021/08/28 01:19:22;;;;;;;;;;;;;;;16.92;76.32;98240.81;5110479;28;20039;-93
2021/08/28 01:21:48;;;;;;;8.05;4.07;;;;;;;16.90;76.19;98242.72;5112218;28;19927;-94
2021/08/28 01:24:16;;;;;;;8.20;4.43;;;;;;;16.78;76.23;98230.84;5101441;28;20054;-93
2021/08/28 01:26:53;;;;;;;6.40;3.70;;;;;;;16.77;75.73;98221.09;5113914;28;20109;-95
2021/08/28 01:29:23;;;;;;;9.52;4.13;;;;;;;16.77;75.76;98214.84;5113790;28;20036;-93
2021/08/28 01:31:51;;;;;;;8.20;3.78;;;;;;;16.76;76.15;98214.00;5110766;28;20131;-94
2021/08/28 01:34:21;;;;;;;8.35;3.92;;;;;;;16.92;76.04;98231.91;5115368;28;20036;-94
2021/08/28 01:36:49;;;;;;;7.18;3.30;;;;;;;16.81;75.76;98209.25;5115187;28;20044;-94
2021/08/28 01:39:16;;;;;;;7.13;3.78;;;;;;;16.98;74.76;98224.31;5115054;28;20543;-94
2021/08/28 01:41:44;;;;;;;8.73;4.25;;;;;;;17.06;74.27;98223.81;5116009;28;20493;-95
2021/08/28 01:44:12;;;;;;;7.30;4.10;;;;;;;17.08;73.88;98224.59;5116641;28;20044;-94
2021/08/28 01:46:41;;;;;;;7.00;3.67;;;;;;;16.99;73.92;98207.22;5117384;28;20400;-94
2021/08/28 01:49:08;;;;;;;7.53;3.50;;;;;;;17.10;74.02;98224.50;5112845;28;20040;-93
2021/08/28 01:51:35;;;;;;;7.28;3.97;;;;;;;17.19;74.01;98213.19;5111543;28;20048;-93
2021/08/28 01:54:01;;;;;;;7.50;3.90;;;;;;;17.18;73.42;98212.31;5113535;28;20066;-92
2021/08/28 01:56:27;;;;;;;6.70;3.65;;;;;;;17.18;73.90;98216.84;5115036;28;20156;-92
2021/08/28 01:58:53;;;;;;;6.78;3.78;;;;;;;17.22;74.29;98227.28;5114720;28;20134;-94
2021/08/28 02:01:19;;;;;;;10.52;4.00;;;;;;;17.09;74.12;98215.59;5115634;28;20043;-93
2021/08/28 02:03:46;;;;;;;6.63;4.13;;;;;;;16.93;73.68;98190.63;5120643;28;20031;-94
2021/08/28 02:06:25;;;;;;;8.50;3.97;;;;;;;16.97;73.89;98206.47;5117004;28;20040;-94
2021/08/28 02:08:57;;;;;;;6.40;3.63;;;;;;;17.14;74.11;98229.59;5115469;28;20039;-94
2021/08/28 02:11:29;;;;;;;8.13;3.65;;;;;;;17.00;74.01;98203.59;5115630;28;20047;-93
2021/08/28 02:14:01;;;;;;;7.80;4.00;;;;;;;17.07;73.53;98203.19;5116344;28;20035;-93
2021/08/28 02:16:35;;;;;;;7.90;3.75;;;;;;;17.11;73.31;98204.72;5114718;28;20040;-95
2021/08/28 02:19:09;;;;;;;8.35;4.03;;;;;;;17.20;73.48;98217.59;5115280;28;20044;-94
2021/08/28 02:21:36;;;;;;;7.47;3.72;;;;;;;17.19;73.72;98229.28;5114560;28;20031;-95
2021/08/28 02:24:06;;;;;;;5.95;3.78;;;;;;;17.15;73.86;98222.38;5114565;28;20043;-94
2021/08/28 02:26:39;;;;;;;8.90;3.97;;;;;;;16.98;73.98;98210.88;5114458;28;20032;-94
2021/08/28 02:29:12;;;;;;;8.93;3.83;;;;;;;16.98;73.74;98194.78;5115784;28;20031;-94
2021/08/28 02:31:43;;;;;;;7.55;4.40;;;;;;;17.00;73.13;98194.66;5111550;28;20070;-94
2021/08/28 02:34:11;;;;;;;7.90;3.88;;;;;;;17.01;72.84;98189.19;5117621;28;20054;-94
2021/08/28 02:36:39;;;;;;;10.32;3.90;;;;;;;17.06;73.10;98196.97;5116027;28;20114;-93
2021/08/28 02:39:06;;;;;;;6.30;3.65;;;;;;;17.08;72.97;98195.03;5117888;28;20058;-93
2021/08/28 02:41:33;;;;;;;6.78;3.88;;;;;;;16.96;72.72;98177.88;5116112;28;20484;-93
2021/08/28 02:44:01;;;;;;;6.63;3.65;;;;;;;17.09;73.25;98206.66;5116863;28;20077;-94
2021/08/28 02:46:30;;;;;;;7.63;3.72;;;;;;;17.03;73.02;98198.03;5112942;28;20047;-94
2021/08/28 02:48:57;;;;;;;10.40;3.67;;;;;;;16.95;73.54;98186.88;5114261;28;20036;-93
2021/08/28 02:51:29;;;;;;;12.43;4.32;;;;;;;16.91;73.49;98179.97;5113826;28;20039;-94
2021/08/28 02:53:59;;;;;;;7.32;4.22;;;;;;;16.98;73.44;98188.50;5117557;28;20047;-94
2021/08/28 02:56:26;;;;;;;6.68;3.88;;;;;;;16.86;73.76;98183.94;5118107;28;20071;-93
2021/08/28 02:58:52;;;;;;;8.77;3.95;;;;;;;16.96;74.17;98207.44;5117607;28;20036;-93
2021/08/28 03:01:18;;;;;;;5.60;3.60;;;;;;;16.93;74.03;98188.81;5117252;28;20061;-95
2021/08/28 03:03:46;;;;;;;7.30;3.97;;;;;;;16.94;73.18;98182.50;5113210;28;20387;-94
2021/08/28 03:06:12;;;;;;;6.00;3.45;;;;;;;17.03;73.42;98198.03;5117798;28;20152;-93
2021/08/28 03:08:43;;;;;;;6.07;3.67;;;;;;;17.02;73.75;98193.63;5114498;28;20035;-94
2021/08/28 03:11:11;;;;;;;7.03;3.65;;;;;;;16.93;73.68;98191.50;5119963;28;20046;-94
2021/08/28 03:13:37;;;;;;;7.75;4.35;;;;;;;16.86;73.92;98181.25;5119251;28;20404;-93
2021/08/28 03:16:03;;;;;;;7.65;3.80;;;;;;;16.77;74.31;98174.59;5119039;28;20366;-94
2021/08/28 03:18:32;;;;;;;7.03;3.90;;;;;;;16.87;74.07;98189.19;5118214;28;20123;-94
2021/08/28 03:20:59;;;;;;;7.90;4.38;;;;;;;16.92;74.41;98189.78;5117023;28;20135;-94
2021/08/28 03:23:29;;;;;;;8.10;3.90;;;;;;;16.86;73.88;98183.94;5119373;28;20131;-93
2021/08/28 03:25:57;;;;;;;10.93;3.90;;;;;;;16.89;73.69;98183.72;5118990;28;20057;-95
2021/08/28 03:28:24;;;;;;;6.17;3.73;;;;;;;16.97;73.79;98193.03;5117975;28;20527;-94
2021/08/28 03:30:51;;;;;;;8.70;3.65;;;;;;;16.86;74.33;98163.31;5115751;28;20039;-92
2021/08/28 03:33:18;;;;;;;7.40;3.85;;;;;;;16.81;74.04;98170.78;5118151;28;20086;-94
2021/08/28 03:35:46;;;;;;;5.95;3.90;;;;;;;16.80;74.65;98179.78;5119112;28;20036;-94
2021/08/28 03:38:12;;;;;;;6.80;3.80;;;;;;;16.73;74.87;98171.22;5117249;28;20031;-93
2021/08/28 03:40:40;;;;;;;8.48;4.03;;;;;;;16.64;75.25;98159.22;5117574;28;20055;-94
2021/08/28 03:43:09;;;;;;;7.13;4.10;;;;;;;16.67;75.55;98168.91;5118316;28;20046;-93
2021/08/28 03:45:35;;;;;;;7.28;4.10;;;;;;;16.48;76.29;98155.78;5117742;28;20126;-93
2021/08/28 03:48:01;;;;;;;10.77;3.90;;;;;;;16.39;76.05;98143.78;5113602;28;20067;-92
2021/08/28 03:50:27;;;;;;;7.72;4.18;;;;;;;16.49;76.29;98162.84;5118266;28;20052;-94
2021/08/28 03:52:53;;;;;;;5.97;3.72;;;;;;;16.58;76.62;98180.22;5117891;28;20047;-94
2021/08/28 03:55:19;;;;;;;8.60;3.78;;;;;;;16.61;76.62;98190.75;5116767;28;20058;-94
2021/08/28 03:57:45;;;;;;;7.18;4.05;;;;;;;16.46;76.97;98171.09;5118222;28;20036;-94
2021/08/28 04:00:13;;;;;;;9.43;4.05;;;;;;;16.61;76.24;98163.91;5114488;28;20123;-93
2021/08/28 04:02:39;;;;;;;6.13;3.75;;;;;;;16.58;76.55;98172.16;5116535;28;20036;-93
2021/08/28 04:05:05;;;;;;;5.88;4.18;;;;;;;16.53;76.06;98156.34;5116569;28;20382;-94
2021/08/28 04:07:31;;;;;;;7.45;3.88;;;;;;;16.60;75.23;98157.69;5117316;28;20040;-93
2021/08/28 04:09:58;;;;;;;7.20;3.45;;;;;;;16.78;74.80;98173.63;5117696;28;20069;-95
2021/08/28 04:12:24;;;;;;;6.88;3.80;;;;;;;16.76;74.49;98156.72;5117951;28;20070;-94
2021/08/28 04:14:49;;;;;;;8.23;3.63;;;;;;;16.81;74.26;98166.28;5115785;28;20071;-94
2021/08/28 04:17:17;;;;;;;7.00;3.63;;;;;;;16.91;73.96;98166.53;5118618;28;20039;-94
2021/08/28 04:19:43;;;;;;;7.30;3.88;;;;;;;16.80;74.62;98172.59;5119428;28;20042;-94
2021/08/28 04:22:09;;;;;;;5.95;3.13;;;;;;;16.81;74.20;98165.41;5118480;28;20096;-94
2021/08/28 04:24:36;;;;;;;6.47;3.60;;;;;;;16.58;74.57;98140.81;5120878;28;20036;-95
2021/08/28 04:27:03;;;;;;;7.07;3.75;;;;;;;16.65;74.71;98160.06;5118849;28;20496;-93
2021/08/28 04:29:30;;;;;;;6.20;3.72;;;;;;;16.55;74.79;98142.84;5121592;28;20039;-93
2021/08/28 04:31:56;;;;;;;9.23;3.95;;;;;;;16.74;74.51;98158.66;5118364;28;20043;-94
2021/08/28 04:34:23;;;;;;;7.53;3.40;;;;;;;16.62;74.50;98158.44;5121163;28;20044;-94
2021/08/28 04:36:49;;;;;;;7.50;3.78;;;;;;;16.61;74.79;98154.06;5117188;28;20028;-96
2021/08/28 04:39:15;;;;;;;8.15;3.75;;;;;;;16.69;74.49;98174.19;5117473;28;20047;-93
2021/08/28 04:41:41;;;;;;;9.18;4.10;;;;;;;16.67;74.80;98174.28;5117578;28;20054;-94
2021/08/28 04:44:07;;;;;;;5.53;3.67;;;;;;;16.71;74.79;98174.97;5116247;28;20047;-95
2021/08/28 04:46:33;;;;;;;6.70;3.42;;;;;;;16.64;74.88;98161.91;5114800;28;20170;-95
2021/08/28 04:48:59;;;;;;;6.68;3.78;;;;;;;16.66;75.11;98163.66;5116523;28;20075;-94
2021/08/28 04:51:26;;;;;;;9.52;4.25;;;;;;;16.54;75.29;98154.50;5117240;28;20048;-94
2021/08/28 04:53:52;;;;;;;4.97;3.30;;;;;;;16.72;74.75;98165.94;5116342;28;20031;-93
2021/08/28 04:56:18;;;;;;;6.10;3.70;;;;;;;16.54;75.28;98154.50;5113579;28;20036;-96
2021/08/28 04:58:44;;;;;;;5.95;3.35;;;;;;;16.57;75.43;98162.41;5116870;28;20046;-94
2021/08/28 05:01:10;;;;;;;7.00;4.05;;;;;;;16.48;75.84;98145.03;5115247;28;20047;-94
2021/08/28 05:03:36;;;;;;;8.75;4.78;;;;;;;16.47;75.79;98150.50;5115441;28;20133;-93
2021/08/28 05:06:02;;;;;;;7.63;3.78;;;;;;;16.54;75.84;98160.72;5116218;28;20032;-93
2021/08/28 05:08:29;;;;;;;9.25;3.67;;;;;;;16.51;75.89;98147.50;5115735;27;20043;-95
2021/08/28 05:10:55;;;;;;;8.10;3.90;;;;;;;16.45;75.65;98144.34;5116891;28;20551;-95
2021/08/28 05:13:21;;;;;;;8.52;3.92;;;;;;;16.58;75.65;98158.75;5118018;28;20040;-94
2021/08/28 05:15:47;;;;;;;9.07;3.90;;;;;;;16.54;76.17;98168.78;5118381;28;20047;-95
2021/08/28 05:18:13;;;;;;;7.32;4.50;;;;;;;16.52;75.88;98176.06;5121350;28;20044;-94
2021/08/28 05:20:38;;;;;;;10.45;4.85;;;;;;;16.45;76.67;98173.88;5305949;22;20042;-95
2021/08/28 05:23:04;;;;;;;8.07;3.80;;;;;;;16.46;76.23;98151.44;5017673;28;20121;-95
2021/08/28 05:25:32;;;;;;;7.95;3.75;;;;;;;16.46;75.94;98140.69;5017690;28;20103;-94
2021/08/28 05:27:58;;;;;;;6.32;4.00;;;;;;;16.57;75.75;98144.47;5018008;28;20042;-94
2021/08/28 05:30:24;;;;;;;5.95;3.80;;;;;;;16.74;75.74;98155.97;5016541;28;20088;-93
2021/08/28 05:32:49;;;;;;;5.90;3.50;;;;;;;16.74;75.42;98150.59;5018860;28;20040;-94
2021/08/28 05:35:16;;;;;;;7.45;3.58;;;;;;;16.87;74.82;98159.63;5019167;28;20038;-94
2021/08/28 05:37:42;;;;;;;7.22;4.28;;;;;;;16.80;74.58;98135.00;5019981;28;20026;-93
2021/08/28 05:40:11;;;;;;;7.88;4.25;;;;;;;16.94;74.45;98162.84;5022175;28;20107;-94
2021/08/28 05:42:39;;;;;;;6.80;3.60;;;;;;;16.92;74.08;98156.69;5012810;28;20046;-94
2021/08/28 05:45:06;;;;;;;7.88;3.80;;;;;;;16.91;74.00;98139.69;5017993;28;20072;-94
2021/08/28 05:47:32;;;;;;;8.18;4.07;;;;;;;17.04;73.93;98154.09;5019848;28;20120;-94
2021/08/28 05:49:57;;;;;;;7.72;3.72;;;;;;;17.00;73.49;98131.06;5020794;28;20098;-93
2021/08/28 05:52:23;;;;;;;7.82;3.72;;;;;;;17.16;73.35;98138.16;5022474;28;20133;-94
2021/08/28 05:54:49;;;;;;;6.57;3.80;;;;;;;17.22;72.31;98143.13;5022444;28;20060;-95
2021/08/28 05:57:18;;;;;;;7.00;4.07;;;;;;;17.25;72.21;98143.78;5020631;28;20038;-95
2021/08/28 05:59:46;;;;;;;9.20;3.80;;;;;;;17.18;72.53;98130.84;5019537;28;20095;-95
2021/08/28 06:02:12;;;;;;;5.97;3.67;;;;;;;17.35;71.87;98124.38;5019966;28;20050;-93
2021/08/28 06:04:38;;;;;;;6.13;3.60;;;;;;;17.50;70.86;98131.47;5020314;28;20092;-94
2021/08/28 06:07:04;;;;;;;8.07;3.80;;;;;;;17.58;70.50;98131.78;5021755;28;20093;-93
2021/08/28 06:09:29;;;;;;;6.25;3.60;;;;;;;17.76;69.61;98140.50;5017184;28;20089;-94
2021/08/28 06:11:56;;;;;;;7.68;3.95;;;;;;;17.86;69.92;98163.13;5018539;28;20088;-94
2021/08/28 06:14:22;;;;;;;6.47;3.47;;;;;;;17.91;69.74;98152.06;5016924;28;20042;-95
2021/08/28 06:16:50;;;;;;;6.07;3.50;;;;;;;17.99;69.60;98162.31;5018998;28;20502;-94
2021/08/28 06:19:16;;;;;;;6.65;4.38;;;;;;;17.91;69.18;98156.59;5020132;28;20088;-94
2021/08/28 06:21:42;;;;;;;9.32;5.07;;;;;;;18.05;69.20;98156.53;5017373;28;20042;-94
2021/08/28 06:24:09;;;;;;;6.53;4.10;;;;;;;18.07;68.68;98146.53;5019931;28;20057;-94
2021/08/28 06:26:35;;;;;;;6.72;3.72;;;;;;;18.22;68.39;98137.41;5018872;28;20525;-94
2021/08/28 06:29:04;;;;;;;5.90;3.53;;;;;;;18.58;66.78;98145.75;5021375;28;20134;-92
2021/08/28 06:31:30;;;;;;;7.95;3.92;;;;;;;18.64;67.55;98146.16;5021879;28;20507;-94
2021/08/28 06:33:58;;;;;;;7.07;3.80;;;;;;;18.61;66.86;98161.69;5022469;28;20041;-93
2021/08/28 06:36:24;;;;;;;5.28;3.80;;;;;;;18.91;66.20;98155.16;5021042;28;20046;-94
2021/08/28 06:38:50;;;;;;;7.25;3.92;;;;;;;18.91;65.51;98142.56;5022262;28;20046;-94
2021/08/28 06:41:15;;;;;;;9.20;4.03;;;;;;;18.70;65.59;98133.28;5021790;28;20069;-94
2021/08/28 06:43:41;;;;;;;8.25;3.83;;;;;;;18.74;66.10;98157.19;5022250;28;20042;-93
2021/08/28 06:46:07;;;;;;;6.60;3.97;;;;;;;18.82;66.23;98145.88;5020747;28;20137;-94
2021/08/28 06:48:33;;;;;;;7.30;3.83;;;;;;;18.81;66.19;98158.50;5018836;28;20451;-94
2021/08/28 06:51:01;;;;;;;7.10;4.15;;;;;;;18.88;66.33;98167.84;5019940;28;20045;-94
2021/08/28 06:53:29;;;;;;;8.60;4.13;;;;;;;18.53;66.61;98173.00;5021435;28;20076;-94
2021/08/28 06:55:55;;;;;;;7.78;4.15;;;;;;;18.54;67.26;98141.53;5020787;28;20085;-94
2021/08/28 06:58:21;;;;;;;7.55;3.75;;;;;;;18.86;66.32;98152.78;5017664;28;20030;-93
2021/08/28 07:00:47;;;;;;;8.88;4.05;;;;;;;18.96;65.63;98145.78;5015178;28;20048;-94
2021/08/28 07:03:13;;;;;;;7.47;4.40;;;;;;;19.11;65.47;98153.75;5017723;28;20068;-95
2021/08/28 07:05:39;;;;;;;6.53;3.75;;;;;;;19.45;64.19;98141.34;5017092;28;20034;-94
2021/08/28 07:08:06;;;;;;;9.40;4.30;;;;;;;19.43;64.41;98128.00;5016899;28;20065;-94
2021/08/28 07:10:32;;;;;;;6.82;4.00;;;;;;;19.72;63.00;98143.88;5015870;28;20522;-93
2021/08/28 07:12:58;;;;;;;7.95;4.10;;;;;;;19.43;63.67;98122.59;5016011;28;20447;-94
2021/08/28 07:15:25;;;;;;;9.00;3.88;;;;;;;19.83;62.55;98149.34;5018282;28;20038;-94
2021/08/28 07:17:54;;;;;;;5.88;3.85;;;;;;;19.21;64.18;98142.16;5016784;28;20069;-93
2021/08/28 07:20:20;;;;;;;10.20;4.50;;;;;;;19.37;64.79;98144.63;5016406;28;20069;-93
2021/08/28 07:22:46;;;;;;;6.78;4.00;;;;;;;19.36;64.35;98126.72;5014708;28;20061;-93
2021/08/28 07:25:13;;;;;;;8.27;4.10;;;;;;;19.43;64.97;98144.19;5015021;28;20042;-93
2021/08/28 07:27:41;;;;;;;7.32;4.05;;;;;;;19.67;63.29;98119.91;5016969;28;20483;-93
2021/08/28 07:30:08;;;;;;;7.00;4.03;;;;;;;20.31;62.52;98114.19;5015891;28;20046;-93
2021/08/28 07:32:34;;;;;;;6.22;3.97;;;;;;;19.95;63.13;98146.69;5018744;28;20041;-95
2021/08/28 07:35:00;;;;;;;6.38;3.92;;;;;;;19.83;63.02;98124.19;5017031;28;20052;-94
2021/08/28 07:37:26;;;;;;;8.55;3.95;;;;;;;19.92;62.64;98134.28;5021838;28;20101;-94
2021/08/28 07:39:52;;;;;;;7.82;4.18;;;;;;;19.83;62.67;98141.25;5016475;28;20084;-94
2021/08/28 07:42:22;;;;;;;7.10;4.20;;;;;;;19.46;63.00;98098.09;5016589;28;20050;-93
2021/08/28 07:44:48;;;;;;;7.60;4.38;;;;;;;19.60;62.88;98101.59;5017331;28;20446;-94
2021/08/28 07:47:15;;;;;;;9.63;4.32;;;;;;;19.60;63.53;98128.56;5017110;28;20058;-93
2021/08/28 07:49:41;;;;;;;6.40;4.25;;;;;;;19.49;63.09;98088.91;5016474;28;20033;-93
2021/08/28 07:52:07;;;;;;;10.07;4.35;;;;;;;19.78;62.81;98118.28;5017656;28;20561;-94
2021/08/28 07:54:33;;;;;;;8.32;4.20;;;;;;;19.54;62.94;98085.88;5016602;28;20042;-93
2021/08/28 07:56:59;;;;;;;7.65;4.25;;;;;;;19.93;62.36;98113.56;5015616;28;20054;-94
2021/08/28 07:59:28;;;;;;;7.68;4.28;;;;;;;19.80;61.85;98105.53;5016962;28;20034;-94
2021/08/28 08:01:54;;;;;;;7.15;4.10;;;;;;;19.88;62.15;98109.38;5015007;28;20069;-94
2021/08/28 08:04:20;;;;;;;9.60;4.45;;;;;;;19.82;62.52;98114.38;5015784;28;20491;-95
2021/08/28 08:06:46;;;;;;;7.15;4.22;;;;;;;19.88;62.98;98114.75;5011969;28;20033;-94
2021/08/28 08:09:14;;;;;;;9.00;4.45;;;;;;;19.96;62.58;98110.66;5016610;28;20069;-96
2021/08/28 08:11:40;;;;;;;8.00;3.90;;;;;;;19.77;63.05;98111.16;5016703;28;20046;-93
2021/08/28 08:14:06;;;;;;;7.53;4.53;;;;;;;19.93;62.31;98105.47;5015718;28;20057;-94
2021/08/28 08:16:33;;;;;;;16.67;4.65;;;;;;;20.37;61.02;98110.16;5014862;28;20495;-93
2021/08/28 08:18:59;;;;;;;7.80;4.10;;;;;;;;;;5015899;28;20053;-92
2021/08/28 08:21:25;;;;;;;7.00;3.78;;;;;;;20.26;59.97;98099.34;5015990;28;20345;-94
2021/08/28 08:23:51;;;;;;;6.60;4.07;;;;;;;20.49;60.37;98117.31;5015690;28;20044;-94
2021/08/28 08:26:17;;;;;;;8.60;3.92;;;;;;;20.53;60.63;98117.91;5015957;28;20065;-93
2021/08/28 08:28:43;;;;;;;6.85;3.90;;;;;;;20.87;59.56;98096.38;5015597;28;20062;-95
2021/08/28 08:31:09;;;;;;;8.02;4.82;;;;;;;20.96;59.49;98106.44;5015647;28;20037;-93
2021/08/28 08:33:38;;;;;;;8.60;4.03;;;;;;;20.92;59.17;98099.56;5015750;28;20678;-92
2021/08/28 08:36:04;;;;;;;7.72;4.50;;;;;;;20.16;60.79;98098.31;5011902;28;20380;-95
2021/08/28 08:38:30;;;;;;;6.82;4.13;;;;;;;20.22;60.72;98114.91;5015841;28;20045;-94
2021/08/28 08:40:58;;;;;;;8.15;4.20;;;;;;;20.02;61.82;98100.25;5015585;28;20042;-94
2021/08/28 08:43:25;;;;;;;6.93;4.30;;;;;;;19.86;62.78;98095.16;5015488;28;20060;-93
2021/08/28 08:45:51;;;;;;;8.02;4.10;;;;;;;19.79;62.87;98106.53;5015485;28;20045;-93
2021/08/28 08:48:22;;;;;;;9.80;4.45;;;;;;;19.56;63.97;98103.69;5015147;28;20457;-94
2021/08/28 08:50:50;;;;;;;7.25;4.40;;;;;;;19.31;65.21;98111.84;5013085;28;20041;-94
2021/08/28 08:53:17;;;;;;;7.50;4.47;;;;;;;19.19;65.59;98124.38;5014426;28;20045;-95
2021/08/28 08:55:43;;;;;;;9.15;4.68;;;;;;;19.05;66.19;98133.47;5015973;28;20044;-94
2021/08/28 08:58:10;;;;;;;7.80;4.28;;;;;;;18.88;66.88;98131.97;5016524;28;20042;-94
2021/08/28 09:00:36;;;;;;;10.80;4.65;;;;;;;18.81;67.28;98125.31;5015616;28;20045;-96
2021/08/28 09:03:01;;;;;;;7.32;4.45;;;;;;;18.75;66.89;98109.56;5015644;28;20119;-93
2021/08/28 09:05:27;;;;;;;9.48;4.15;;;;;;;18.61;67.70;98115.94;5015921;28;20506;-93
2021/08/28 09:07:55;;;;;;;7.20;4.20;;;;;;;18.52;67.16;98121.94;5016270;28;20041;-94
2021/08/28 09:10:21;;;;;;;7.93;4.20;;;;;;;18.08;69.52;98121.34;5017464;28;20080;-93
2021/08/28 09:12:47;;;;;;;6.70;4.30;;;;;;;17.71;70.67;98122.94;5017017;28;20057;-95
2021/08/28 09:15:15;;;;;;;7.55;4.30;;;;;;;17.24;72.71;98123.25;5017426;28;20117;-94
2021/08/28 09:17:42;;;;;;;8.75;4.50;;;;;;;17.01;73.28;98131.94;5016715;28;20088;-92
2021/08/28 09:20:19;;;;;;;8.15;4.25;;;;;;;16.94;74.57;98144.88;5016072;28;20045;-95
2021/08/28 09:22:45;;;;;;;7.97;5.10;;;;;;;16.61;77.63;98148.69;5017029;28;20046;-95
2021/08/28 09:25:22;;;;;;;7.03;4.28;;;;;;;16.63;77.65;98144.09;5015704;28;20070;-95
2021/08/28 09:27:50;;;;;;;9.40;4.78;;;;;;;16.40;79.66;98133.91;5003114;28;20034;-93
2021/08/28 09:30:23;;;;;;;9.35;4.65;;;;;;;16.32;80.42;98145.09;5017677;28;20522;-96
2021/08/28 09:32:52;;;;;;;8.63;4.95;;;;;;;16.29;79.71;98147.97;5020033;28;20051;-95
2021/08/28 09:35:19;;;;;;;;;;;;;;;16.22;79.44;98170.72;5021143;28;20502;-94
2021/08/28 09:37:52;;;;;;;8.30;4.40;;;;;;;15.97;80.20;98144.50;5021807;28;19940;-94
2021/08/28 09:40:22;;;;;;;8.07;4.03;;;;;;;15.89;82.02;98150.31;5020529;28;20053;-95
2021/08/28 09:42:53;;;;;;;8.30;5.00;;;;;;;15.80;81.13;98132.09;5019224;28;20471;-94
2021/08/28 09:45:21;;;;;;;8.77;4.30;;;;;;;15.74;82.41;98160.13;5019681;28;20045;-95
2021/08/28 09:47:47;;;;;;;6.67;4.30;;;;;;;15.69;82.92;98164.00;5018686;28;20049;-95
2021/08/28 09:50:23;;;;;;;7.97;4.50;;;;;;;15.66;83.47;98165.03;5019237;28;20511;-96
2021/08/28 09:52:49;;;;;;;8.60;4.88;;;;;;;15.37;84.58;98164.00;5019091;28;20523;-95
2021/08/28 09:55:15;;;;;;;9.05;4.80;;;;;;;15.38;85.87;98173.78;5018608;28;20045;-93
2021/08/28 09:57:49;;;;;;;9.55;4.75;;;;;;;15.17;86.07;98160.63;5017260;28;20049;-93
2021/08/28 10:00:15;;;;;;;11.43;5.35;;;;;;;15.17;86.85;98175.84;5017319;28;20041;-95
2021/08/28 10:02:54;;;;;;;7.32;4.40;;;;;;;15.13;87.42;98175.13;5019939;28;20133;-95
2021/08/28 10:05:21;;;;;;;10.35;5.35;;;;;;;15.09;88.09;98175.38;5023458;28;20049;-95
2021/08/28 10:07:49;;;;;;;9.75;5.47;;;;;;;15.15;87.90;98185.75;5025741;28;20042;-95
2021/08/28 10:10:18;;;;;;;8.38;4.85;;;;;;;15.12;88.01;98188.63;5030144;28;20046;-95
2021/08/28 10:12:52;;;;;;;9.90;5.13;;;;;;;15.28;88.96;98208.25;5030198;28;20399;-96
2021/08/28 10:15:20;;;;;;;8.75;4.80;;;;;;;15.08;88.23;98185.22;5026191;28;20050;-95
2021/08/28 10:17:54;;;;;;;9.18;5.07;;;;;;;15.10;88.02;98188.69;5028412;28;20041;-95
2021/08/28 10:20:21;;;;;;;8.65;4.03;;;;;;;15.11;87.83;98202.94;5024987;28;20057;-96
2021/08/28 10:22:49;;;;;;;6.65;4.00;;;;;;;15.16;87.36;98225.00;5023385;28;20068;-95
2021/08/28 10:25:18;;;;;;;5.57;4.00;;;;;;;15.02;87.20;98216.84;5023900;28;20046;-95
2021/08/28 10:27:50;;;;;;;6.38;4.10;;;;;;;15.03;87.93;98226.59;5021580;28;20187;-95
2021/08/28 10:30:23;;;;;;;8.38;4.00;;;;;;;15.11;87.90;98269.91;5020114;28;20045;-95
2021/08/28 10:32:50;;;;;;;5.75;3.60;;;;;;;14.87;87.58;98239.94;5019696;28;20568;-95
2021/08/28 10:35:20;;;;;;;5.93;3.60;;;;;;;15.07;87.64;98226.38;5019708;28;20475;-95
2021/08/28 10:37:47;;;;;;;5.75;3.10;;;;;;;15.26;84.70;98214.63;5019237;28;20042;-94
2021/08/28 10:40:24;;;;;;;5.50;2.92;;;;;;;15.55;84.31;98253.22;5021029;28;20042;-94
2021/08/28 10:42:52;;;;;;;5.57;2.70;;;;;;;15.66;85.12;98271.38;5023991;28;20581;-94
2021/08/28 10:45:27;;;;;;;7.07;2.78;;;;;;;15.40;85.13;98225.47;5021793;28;20131;-95
2021/08/28 10:47:57;;;;;;;4.93;3.08;;;;;;;15.67;83.92;98282.00;5020494;28;20397;-95
2021/08/28 10:50:23;;;;;;;5.03;2.58;;;;;;;15.28;85.24;98231.50;5025665;28;20093;-96
2021/08/28 10:52:52;;;;;;;5.38;3.28;;;;;;;15.36;85.66;98264.09;5024380;28;20037;-95
2021/08/28 10:55:19;;;;;;;6.68;2.90;;;;;;;15.15;85.41;98244.69;5025530;28;20068;-96
2021/08/28 10:57:45;;;;;;;3.63;2.17;;;;;;;15.33;84.56;98237.44;5023405;28;20046;-94
2021/08/28 11:00:14;;;;;;;4.28;2.35;;;;;;;15.37;83.99;98229.16;5015938;28;20056;-94
2021/08/28 11:02:56;;;;;;;5.20;2.60;;;;;;;15.62;83.36;98235.84;5025389;28;20496;-95
2021/08/28 11:05:24;;;;;;;8.50;2.50;;;;;;;15.44;83.48;98231.50;5023945;28;20042;-95
2021/08/28 11:07:51;;;;;;;3.07;2.00;;;;;;;15.57;84.38;98241.47;5026431;28;20096;-95
2021/08/28 11:10:19;;;;;;;4.20;2.20;;;;;;;15.76;83.78;98230.59;5026025;28;20052;-96
2021/08/28 11:12:48;;;;;;;3.60;2.17;;;;;;;16.15;84.34;98233.75;5026666;28;20129;-96
2021/08/28 11:15:32;;;;;;;;;;;;;;;16.56;82.27;98263.50;5025899;28;20045;-94
2021/08/28 11:18:02;;;;;;;3.20;2.00;;;;;;;16.12;81.79;98231.25;5026069;28;19913;-94
2021/08/28 11:20:32;;;;;;;4.43;2.20;;;;;;;15.91;83.13;98250.31;5028566;28;20104;-95
2021/08/28 11:23:01;;;;;;;4.07;2.35;;;;;;;15.81;83.08;98246.44;5028064;28;20045;-96
2021/08/28 11:25:28;;;;;;;;;;;;;;;16.08;83.76;98291.41;5028588;28;20054;-93
2021/08/28 11:27:56;;;;;;;4.20;2.40;;;;;;;15.63;84.17;98245.59;5025404;28;19922;-95
2021/08/28 11:30:54;;;;;;;3.75;2.33;;;;;;;15.92;83.17;98237.78;5027423;28;20395;-95
2021/08/28 11:33:27;;;;;;;3.65;2.10;;;;;;;16.22;80.68;98227.94;5025728;28;20068;-94
2021/08/28 11:35:56;;;;;;;4.05;2.28;;;;;;;16.26;80.40;98235.81;5025576;28;20052;-94